sensor_id;sensor_type;location;lat;lon;timestamp;temperature;humidity
20376;DHT22;10347;51.828;6.466;2022-10-16T00:01:23;15.50;99.90
20376;DHT22;10347;51.828;6.466;2022-10-16T00:03:49;15.50;99.90
20376;DHT22;10347;51.828;6.466;2022-10-16T00:06:16;15.50;99.90
20376;DHT22;10347;51.828;6.466;2022-10-16T00:08:42;15.50;99.90
20376;DHT22;10347;51.828;6.466;2022-10-16T00:13:37;15.40;99.90
20376;DHT22;10347;51.828;6.466;2022-10-16T00:16:03;15.40;99.90
20376;DHT22;10347;51.828;6.466;2022-10-16T00:18:29;15.40;99.90
20376;DHT22;10347;51.828;6.466;2022-10-16T00:20:56;15.50;99.90
20376;DHT22;10347;51.828;6.466;2022-10-16T00:23:26;15.50;99.90
20376;DHT22;10347;51.828;6.466;2022-10-16T00:25:57;15.40;99.90
20376;DHT22;10347;51.828;6.466;2022-10-16T00:28:22;15.40;99.90
20376;DHT22;10347;51.828;6.466;2022-10-16T00:30:48;15.40;99.90
20376;DHT22;10347;51.828;6.466;2022-10-16T00:33:14;15.40;99.90
20376;DHT22;10347;51.828;6.466;2022-10-16T00:35:39;15.30;99.90
20376;DHT22;10347;51.828;6.466;2022-10-16T00:38:05;15.40;99.90
20376;DHT22;10347;51.828;6.466;2022-10-16T00:40:30;15.40;99.90
20376;DHT22;10347;51.828;6.466;2022-10-16T00:42:57;15.40;99.90
20376;DHT22;10347;51.828;6.466;2022-10-16T00:45:22;15.40;99.90
20376;DHT22;10347;51.828;6.466;2022-10-16T00:47:48;15.40;99.90
20376;DHT22;10347;51.828;6.466;2022-10-16T00:50:28;15.40;99.90
20376;DHT22;10347;51.828;6.466;2022-10-16T00:52:56;15.40;99.90
20376;DHT22;10347;51.828;6.466;2022-10-16T00:55:22;15.40;99.90
20376;DHT22;10347;51.828;6.466;2022-10-16T00:57:49;15.40;99.90
20376;DHT22;10347;51.828;6.466;2022-10-16T01:00:20;15.40;99.90
20376;DHT22;10347;51.828;6.466;2022-10-16T01:02:56;15.40;99.90
20376;DHT22;10347;51.828;6.466;2022-10-16T01:05:46;15.40;99.90
20376;DHT22;10347;51.828;6.466;2022-10-16T01:08:21;15.30;99.90
20376;DHT22;10347;51.828;6.466;2022-10-16T01:10:59;15.30;99.90
20376;DHT22;10347;51.828;6.466;2022-10-16T01:13:35;15.30;99.90
20376;DHT22;10347;51.828;6.466;2022-10-16T01:16:07;15.40;99.90
20376;DHT22;10347;51.828;6.466;2022-10-16T01:18:46;15.40;99.90
20376;DHT22;10347;51.828;6.466;2022-10-16T01:21:18;15.40;99.90
20376;DHT22;10347;51.828;6.466;2022-10-16T01:35:27;15.30;99.90
20376;DHT22;10347;51.828;6.466;2022-10-16T01:40:24;15.30;99.90
20376;DHT22;10347;51.828;6.466;2022-10-16T01:43:22;15.30;99.90
20376;DHT22;10347;51.828;6.466;2022-10-16T01:45:47;15.30;99.90
20376;DHT22;10347;51.828;6.466;2022-10-16T01:48:17;15.30;99.90
20376;DHT22;10347;51.828;6.466;2022-10-16T01:50:47;15.30;99.90
20376;DHT22;10347;51.828;6.466;2022-10-16T01:53:14;15.30;99.90
20376;DHT22;10347;51.828;6.466;2022-10-16T01:55:44;15.30;99.90
20376;DHT22;10347;51.828;6.466;2022-10-16T01:58:13;15.30;99.90
20376;DHT22;10347;51.828;6.466;2022-10-16T02:00:42;15.30;99.90
20376;DHT22;10347;51.828;6.466;2022-10-16T02:03:10;15.30;99.90
20376;DHT22;10347;51.828;6.466;2022-10-16T02:05:49;15.30;99.90
20376;DHT22;10347;51.828;6.466;2022-10-16T02:08:15;15.30;99.90
20376;DHT22;10347;51.828;6.466;2022-10-16T02:10:41;15.30;99.90
20376;DHT22;10347;51.828;6.466;2022-10-16T02:13:12;15.20;99.90
20376;DHT22;10347;51.828;6.466;2022-10-16T02:15:38;15.30;99.90
20376;DHT22;10347;51.828;6.466;2022-10-16T02:18:05;15.30;99.90
20376;DHT22;10347;51.828;6.466;2022-10-16T02:20:56;15.30;99.90
20376;DHT22;10347;51.828;6.466;2022-10-16T02:26:04;15.30;99.90
20376;DHT22;10347;51.828;6.466;2022-10-16T02:28:40;15.30;99.90
20376;DHT22;10347;51.828;6.466;2022-10-16T02:31:10;15.30;99.90
20376;DHT22;10347;51.828;6.466;2022-10-16T02:33:38;15.30;99.90
20376;DHT22;10347;51.828;6.466;2022-10-16T02:36:05;15.20;99.90
20376;DHT22;10347;51.828;6.466;2022-10-16T02:38:32;15.20;99.90
20376;DHT22;10347;51.828;6.466;2022-10-16T02:40:58;15.20;99.90
20376;DHT22;10347;51.828;6.466;2022-10-16T02:43:25;15.20;99.90
20376;DHT22;10347;51.828;6.466;2022-10-16T02:45:51;15.20;99.90
20376;DHT22;10347;51.828;6.466;2022-10-16T02:48:16;15.20;99.90
20376;DHT22;10347;51.828;6.466;2022-10-16T02:50:42;15.20;99.90
20376;DHT22;10347;51.828;6.466;2022-10-16T02:53:07;15.20;99.90
20376;DHT22;10347;51.828;6.466;2022-10-16T02:55:33;15.20;99.90
20376;DHT22;10347;51.828;6.466;2022-10-16T02:57:59;15.20;99.90
20376;DHT22;10347;51.828;6.466;2022-10-16T03:00:24;15.20;99.90
20376;DHT22;10347;51.828;6.466;2022-10-16T03:02:50;15.20;99.90
20376;DHT22;10347;51.828;6.466;2022-10-16T03:05:16;15.20;99.90
20376;DHT22;10347;51.828;6.466;2022-10-16T03:07:41;15.30;99.90
20376;DHT22;10347;51.828;6.466;2022-10-16T03:10:07;15.20;99.90
20376;DHT22;10347;51.828;6.466;2022-10-16T03:12:33;15.20;99.90
20376;DHT22;10347;51.828;6.466;2022-10-16T03:14:58;15.20;99.90
20376;DHT22;10347;51.828;6.466;2022-10-16T03:17:24;15.20;99.90
20376;DHT22;10347;51.828;6.466;2022-10-16T03:19:50;15.20;99.90
20376;DHT22;10347;51.828;6.466;2022-10-16T03:22:15;15.20;99.90
20376;DHT22;10347;51.828;6.466;2022-10-16T03:24:41;15.20;99.90
20376;DHT22;10347;51.828;6.466;2022-10-16T03:27:07;15.20;99.90
20376;DHT22;10347;51.828;6.466;2022-10-16T03:29:32;15.20;99.90
20376;DHT22;10347;51.828;6.466;2022-10-16T03:31:58;15.20;99.90
20376;DHT22;10347;51.828;6.466;2022-10-16T03:34:24;15.20;99.90
20376;DHT22;10347;51.828;6.466;2022-10-16T03:36:50;15.20;99.90
20376;DHT22;10347;51.828;6.466;2022-10-16T03:39:15;15.20;99.90
20376;DHT22;10347;51.828;6.466;2022-10-16T03:41:41;15.20;99.90
20376;DHT22;10347;51.828;6.466;2022-10-16T03:44:06;15.20;99.90
20376;DHT22;10347;51.828;6.466;2022-10-16T03:46:32;15.20;99.90
20376;DHT22;10347;51.828;6.466;2022-10-16T03:48:57;15.20;99.90
20376;DHT22;10347;51.828;6.466;2022-10-16T03:51:23;15.10;99.90
20376;DHT22;10347;51.828;6.466;2022-10-16T03:53:49;15.10;99.90
20376;DHT22;10347;51.828;6.466;2022-10-16T03:56:14;15.10;99.90
20376;DHT22;10347;51.828;6.466;2022-10-16T03:58:40;15.10;99.90
20376;DHT22;10347;51.828;6.466;2022-10-16T04:01:05;15.10;99.90
20376;DHT22;10347;51.828;6.466;2022-10-16T04:03:31;15.10;99.90
20376;DHT22;10347;51.828;6.466;2022-10-16T04:05:56;15.10;99.90
20376;DHT22;10347;51.828;6.466;2022-10-16T04:08:22;15.10;99.90
20376;DHT22;10347;51.828;6.466;2022-10-16T04:10:48;15.10;99.90
20376;DHT22;10347;51.828;6.466;2022-10-16T04:13:13;15.10;99.90
20376;DHT22;10347;51.828;6.466;2022-10-16T04:15:39;15.10;99.90
20376;DHT22;10347;51.828;6.466;2022-10-16T04:18:05;15.10;99.90
20376;DHT22;10347;51.828;6.466;2022-10-16T04:20:31;15.10;99.90
20376;DHT22;10347;51.828;6.466;2022-10-16T04:22:57;15.10;99.90
20376;DHT22;10347;51.828;6.466;2022-10-16T04:25:23;15.20;99.90
20376;DHT22;10347;51.828;6.466;2022-10-16T04:27:48;15.10;99.90
20376;DHT22;10347;51.828;6.466;2022-10-16T04:30:14;15.10;99.90
20376;DHT22;10347;51.828;6.466;2022-10-16T04:32:40;15.10;99.90
20376;DHT22;10347;51.828;6.466;2022-10-16T04:35:06;15.10;99.90
20376;DHT22;10347;51.828;6.466;2022-10-16T04:37:32;15.10;99.90
20376;DHT22;10347;51.828;6.466;2022-10-16T04:39:57;15.10;99.90
20376;DHT22;10347;51.828;6.466;2022-10-16T04:42:23;15.10;99.90
20376;DHT22;10347;51.828;6.466;2022-10-16T04:44:48;15.10;99.90
20376;DHT22;10347;51.828;6.466;2022-10-16T04:47:14;15.10;99.90
20376;DHT22;10347;51.828;6.466;2022-10-16T04:49:40;15.10;99.90
20376;DHT22;10347;51.828;6.466;2022-10-16T04:52:05;15.10;99.90
20376;DHT22;10347;51.828;6.466;2022-10-16T04:54:31;15.10;99.90
20376;DHT22;10347;51.828;6.466;2022-10-16T04:56:56;15.10;99.90
20376;DHT22;10347;51.828;6.466;2022-10-16T04:59:23;15.10;99.90
20376;DHT22;10347;51.828;6.466;2022-10-16T05:01:48;15.10;99.90
20376;DHT22;10347;51.828;6.466;2022-10-16T05:04:14;15.10;99.90
20376;DHT22;10347;51.828;6.466;2022-10-16T05:06:41;15.10;99.90
20376;DHT22;10347;51.828;6.466;2022-10-16T05:09:07;15.10;99.90
20376;DHT22;10347;51.828;6.466;2022-10-16T05:11:33;15.10;99.90
20376;DHT22;10347;51.828;6.466;2022-10-16T05:13:59;15.10;99.90
20376;DHT22;10347;51.828;6.466;2022-10-16T05:16:25;15.10;99.90
20376;DHT22;10347;51.828;6.466;2022-10-16T05:18:54;15.10;99.90
20376;DHT22;10347;51.828;6.466;2022-10-16T05:21:20;15.00;99.90
20376;DHT22;10347;51.828;6.466;2022-10-16T05:23:46;15.10;99.90
20376;DHT22;10347;51.828;6.466;2022-10-16T05:26:11;15.10;99.90
20376;DHT22;10347;51.828;6.466;2022-10-16T05:28:37;15.10;99.90
20376;DHT22;10347;51.828;6.466;2022-10-16T05:31:07;15.00;99.90
20376;DHT22;10347;51.828;6.466;2022-10-16T05:33:32;15.00;99.90
20376;DHT22;10347;51.828;6.466;2022-10-16T05:36:16;15.00;99.90
20376;DHT22;10347;51.828;6.466;2022-10-16T05:38:43;14.90;99.90
20376;DHT22;10347;51.828;6.466;2022-10-16T05:41:09;15.00;99.90
20376;DHT22;10347;51.828;6.466;2022-10-16T05:43:34;15.00;99.90
20376;DHT22;10347;51.828;6.466;2022-10-16T05:46:03;15.00;99.90
20376;DHT22;10347;51.828;6.466;2022-10-16T05:48:28;15.00;99.90
20376;DHT22;10347;51.828;6.466;2022-10-16T05:51:02;15.00;99.90
20376;DHT22;10347;51.828;6.466;2022-10-16T05:53:29;15.00;99.90
20376;DHT22;10347;51.828;6.466;2022-10-16T05:55:56;15.00;99.90
20376;DHT22;10347;51.828;6.466;2022-10-16T05:58:22;15.00;99.90
20376;DHT22;10347;51.828;6.466;2022-10-16T06:01:00;15.00;99.90
20376;DHT22;10347;51.828;6.466;2022-10-16T06:03:25;15.00;99.90
20376;DHT22;10347;51.828;6.466;2022-10-16T06:05:51;15.10;99.90
20376;DHT22;10347;51.828;6.466;2022-10-16T06:08:18;15.00;99.90
20376;DHT22;10347;51.828;6.466;2022-10-16T06:10:45;14.90;99.90
20376;DHT22;10347;51.828;6.466;2022-10-16T06:13:11;15.00;99.90
20376;DHT22;10347;51.828;6.466;2022-10-16T06:15:38;15.00;99.90
20376;DHT22;10347;51.828;6.466;2022-10-16T06:18:04;15.00;99.90
20376;DHT22;10347;51.828;6.466;2022-10-16T06:20:30;15.00;99.90
20376;DHT22;10347;51.828;6.466;2022-10-16T06:22:57;15.00;99.90
20376;DHT22;10347;51.828;6.466;2022-10-16T06:25:22;15.00;99.90
20376;DHT22;10347;51.828;6.466;2022-10-16T06:27:48;15.00;99.90
20376;DHT22;10347;51.828;6.466;2022-10-16T06:30:13;15.00;99.90
20376;DHT22;10347;51.828;6.466;2022-10-16T06:32:39;15.00;99.90
20376;DHT22;10347;51.828;6.466;2022-10-16T06:35:05;15.00;99.90
20376;DHT22;10347;51.828;6.466;2022-10-16T06:37:30;15.00;99.90
20376;DHT22;10347;51.828;6.466;2022-10-16T06:39:56;15.00;99.90
20376;DHT22;10347;51.828;6.466;2022-10-16T06:42:22;15.00;99.90
20376;DHT22;10347;51.828;6.466;2022-10-16T06:44:47;14.90;99.90
20376;DHT22;10347;51.828;6.466;2022-10-16T06:47:13;14.90;99.90
20376;DHT22;10347;51.828;6.466;2022-10-16T06:49:38;14.90;99.90
20376;DHT22;10347;51.828;6.466;2022-10-16T06:52:04;14.90;99.90
20376;DHT22;10347;51.828;6.466;2022-10-16T06:54:30;15.00;99.90
20376;DHT22;10347;51.828;6.466;2022-10-16T06:56:56;14.90;99.90
20376;DHT22;10347;51.828;6.466;2022-10-16T06:59:21;14.90;99.90
20376;DHT22;10347;51.828;6.466;2022-10-16T07:01:47;14.90;99.90
20376;DHT22;10347;51.828;6.466;2022-10-16T07:04:13;14.90;99.90
20376;DHT22;10347;51.828;6.466;2022-10-16T07:06:38;14.90;99.90
20376;DHT22;10347;51.828;6.466;2022-10-16T07:09:08;14.90;99.90
20376;DHT22;10347;51.828;6.466;2022-10-16T07:11:34;15.00;99.90
20376;DHT22;10347;51.828;6.466;2022-10-16T07:14:00;14.90;99.90
20376;DHT22;10347;51.828;6.466;2022-10-16T07:16:27;15.00;99.90
20376;DHT22;10347;51.828;6.466;2022-10-16T07:18:54;14.90;99.90
20376;DHT22;10347;51.828;6.466;2022-10-16T07:21:23;15.00;99.90
20376;DHT22;10347;51.828;6.466;2022-10-16T07:23:55;15.00;99.90
20376;DHT22;10347;51.828;6.466;2022-10-16T07:26:22;14.90;99.90
20376;DHT22;10347;51.828;6.466;2022-10-16T07:28:47;15.00;99.90
20376;DHT22;10347;51.828;6.466;2022-10-16T07:31:14;15.00;99.90
20376;DHT22;10347;51.828;6.466;2022-10-16T07:33:41;15.00;99.90
20376;DHT22;10347;51.828;6.466;2022-10-16T07:36:10;15.00;99.90
20376;DHT22;10347;51.828;6.466;2022-10-16T07:38:36;15.10;99.90
20376;DHT22;10347;51.828;6.466;2022-10-16T07:41:03;15.10;99.90
20376;DHT22;10347;51.828;6.466;2022-10-16T07:43:30;15.10;99.90
20376;DHT22;10347;51.828;6.466;2022-10-16T07:45:56;15.20;99.90
20376;DHT22;10347;51.828;6.466;2022-10-16T07:48:23;15.20;99.90
20376;DHT22;10347;51.828;6.466;2022-10-16T07:50:49;15.20;99.90
20376;DHT22;10347;51.828;6.466;2022-10-16T07:53:15;15.30;99.90
20376;DHT22;10347;51.828;6.466;2022-10-16T07:55:41;15.30;99.90
20376;DHT22;10347;51.828;6.466;2022-10-16T07:58:07;15.40;99.90
20376;DHT22;10347;51.828;6.466;2022-10-16T08:00:33;15.40;99.90
20376;DHT22;10347;51.828;6.466;2022-10-16T08:02:59;15.40;99.90
20376;DHT22;10347;51.828;6.466;2022-10-16T08:05:29;15.50;99.90
20376;DHT22;10347;51.828;6.466;2022-10-16T08:07:56;15.50;99.90
20376;DHT22;10347;51.828;6.466;2022-10-16T08:10:23;15.50;99.90
20376;DHT22;10347;51.828;6.466;2022-10-16T08:12:50;15.60;99.90
20376;DHT22;10347;51.828;6.466;2022-10-16T08:15:16;15.70;99.90
20376;DHT22;10347;51.828;6.466;2022-10-16T08:17:42;15.70;99.90
20376;DHT22;10347;51.828;6.466;2022-10-16T08:20:08;15.70;99.90
20376;DHT22;10347;51.828;6.466;2022-10-16T08:22:34;15.80;99.90
20376;DHT22;10347;51.828;6.466;2022-10-16T08:24:59;15.80;99.90
20376;DHT22;10347;51.828;6.466;2022-10-16T08:27:25;15.80;99.90
20376;DHT22;10347;51.828;6.466;2022-10-16T08:29:54;15.90;99.90
20376;DHT22;10347;51.828;6.466;2022-10-16T08:32:19;15.90;99.90
20376;DHT22;10347;51.828;6.466;2022-10-16T08:34:45;16.00;99.90
20376;DHT22;10347;51.828;6.466;2022-10-16T08:37:10;16.00;99.90
20376;DHT22;10347;51.828;6.466;2022-10-16T08:39:38;16.00;99.90
20376;DHT22;10347;51.828;6.466;2022-10-16T08:45:07;16.10;99.90
20376;DHT22;10347;51.828;6.466;2022-10-16T08:48:00;16.10;99.90
20376;DHT22;10347;51.828;6.466;2022-10-16T08:50:31;16.20;99.90
20376;DHT22;10347;51.828;6.466;2022-10-16T08:52:58;16.30;99.90
20376;DHT22;10347;51.828;6.466;2022-10-16T08:58:13;16.30;99.90
20376;DHT22;10347;51.828;6.466;2022-10-16T09:00:39;16.40;99.90
20376;DHT22;10347;51.828;6.466;2022-10-16T09:09:15;16.60;99.90
20376;DHT22;10347;51.828;6.466;2022-10-16T09:14:42;16.70;99.90
20376;DHT22;10347;51.828;6.466;2022-10-16T09:19:49;16.80;99.90
20376;DHT22;10347;51.828;6.466;2022-10-16T09:22:18;16.90;99.90
20376;DHT22;10347;51.828;6.466;2022-10-16T09:24:46;17.00;99.90
20376;DHT22;10347;51.828;6.466;2022-10-16T09:27:13;17.00;99.90
20376;DHT22;10347;51.828;6.466;2022-10-16T09:29:40;17.10;99.90
20376;DHT22;10347;51.828;6.466;2022-10-16T09:32:14;17.10;99.90
20376;DHT22;10347;51.828;6.466;2022-10-16T09:34:50;17.20;99.90
20376;DHT22;10347;51.828;6.466;2022-10-16T09:37:19;17.30;99.90
20376;DHT22;10347;51.828;6.466;2022-10-16T09:39:49;17.30;99.90
20376;DHT22;10347;51.828;6.466;2022-10-16T09:42:26;17.40;99.90
20376;DHT22;10347;51.828;6.466;2022-10-16T09:44:53;17.40;99.90
20376;DHT22;10347;51.828;6.466;2022-10-16T09:47:29;17.50;99.90
20376;DHT22;10347;51.828;6.466;2022-10-16T09:50:05;17.60;99.90
20376;DHT22;10347;51.828;6.466;2022-10-16T09:52:41;17.70;99.90
20376;DHT22;10347;51.828;6.466;2022-10-16T09:55:15;17.70;99.90
20376;DHT22;10347;51.828;6.466;2022-10-16T09:57:51;17.80;99.90
20376;DHT22;10347;51.828;6.466;2022-10-16T10:00:18;17.80;99.90
20376;DHT22;10347;51.828;6.466;2022-10-16T10:02:44;17.80;99.90
20376;DHT22;10347;51.828;6.466;2022-10-16T10:07:58;18.00;99.90
20376;DHT22;10347;51.828;6.466;2022-10-16T10:10:29;18.00;99.90
20376;DHT22;10347;51.828;6.466;2022-10-16T10:12:56;18.00;99.90
20376;DHT22;10347;51.828;6.466;2022-10-16T10:15:23;18.00;99.90
20376;DHT22;10347;51.828;6.466;2022-10-16T10:17:55;18.10;99.90
20376;DHT22;10347;51.828;6.466;2022-10-16T10:22:55;18.20;99.90
20376;DHT22;10347;51.828;6.466;2022-10-16T10:33:53;18.40;99.90
20376;DHT22;10347;51.828;6.466;2022-10-16T10:36:39;18.40;99.90
20376;DHT22;10347;51.828;6.466;2022-10-16T10:47:47;18.60;99.90
20376;DHT22;10347;51.828;6.466;2022-10-16T10:50:43;18.70;99.90
20376;DHT22;10347;51.828;6.466;2022-10-16T11:02:59;18.80;99.90
20376;DHT22;10347;51.828;6.466;2022-10-16T11:05:21;18.80;99.90
20376;DHT22;10347;51.828;6.466;2022-10-16T11:08:00;18.90;99.90
20376;DHT22;10347;51.828;6.466;2022-10-16T11:10:34;19.00;99.90
20376;DHT22;10347;51.828;6.466;2022-10-16T11:13:30;19.00;99.90
20376;DHT22;10347;51.828;6.466;2022-10-16T11:15:59;19.10;99.90
20376;DHT22;10347;51.828;6.466;2022-10-16T11:18:38;19.10;99.90
20376;DHT22;10347;51.828;6.466;2022-10-16T11:21:10;19.20;99.90
20376;DHT22;10347;51.828;6.466;2022-10-16T11:26:13;19.30;99.90
20376;DHT22;10347;51.828;6.466;2022-10-16T11:28:47;19.30;99.90
20376;DHT22;10347;51.828;6.466;2022-10-16T11:31:41;19.40;99.90
20376;DHT22;10347;51.828;6.466;2022-10-16T11:37:01;19.50;99.90
20376;DHT22;10347;51.828;6.466;2022-10-16T11:39:29;19.40;99.90
20376;DHT22;10347;51.828;6.466;2022-10-16T11:42:22;19.40;99.90
20376;DHT22;10347;51.828;6.466;2022-10-16T11:45:00;19.40;99.90
20376;DHT22;10347;51.828;6.466;2022-10-16T11:50:13;19.30;99.90
20376;DHT22;10347;51.828;6.466;2022-10-16T11:55:42;19.30;99.90
20376;DHT22;10347;51.828;6.466;2022-10-16T11:58:31;19.40;99.90
20376;DHT22;10347;51.828;6.466;2022-10-16T12:01:01;19.40;99.90
20376;DHT22;10347;51.828;6.466;2022-10-16T12:08:59;19.60;99.90
20376;DHT22;10347;51.828;6.466;2022-10-16T12:16:39;19.60;99.90
20376;DHT22;10347;51.828;6.466;2022-10-16T12:19:16;19.60;99.90
20376;DHT22;10347;51.828;6.466;2022-10-16T12:21:43;19.60;99.90
20376;DHT22;10347;51.828;6.466;2022-10-16T12:24:30;19.60;99.90
20376;DHT22;10347;51.828;6.466;2022-10-16T12:26:56;19.60;99.90
20376;DHT22;10347;51.828;6.466;2022-10-16T12:29:38;19.60;99.90
20376;DHT22;10347;51.828;6.466;2022-10-16T12:32:19;19.60;99.90
20376;DHT22;10347;51.828;6.466;2022-10-16T12:34:48;19.60;99.90
20376;DHT22;10347;51.828;6.466;2022-10-16T12:37:34;19.60;99.90
20376;DHT22;10347;51.828;6.466;2022-10-16T12:40:12;19.60;99.90
20376;DHT22;10347;51.828;6.466;2022-10-16T12:42:39;19.60;99.90
20376;DHT22;10347;51.828;6.466;2022-10-16T12:45:30;19.70;99.90
20376;DHT22;10347;51.828;6.466;2022-10-16T12:47:58;19.60;99.90
20376;DHT22;10347;51.828;6.466;2022-10-16T12:50:33;19.70;99.90
20376;DHT22;10347;51.828;6.466;2022-10-16T12:53:00;19.80;99.90
20376;DHT22;10347;51.828;6.466;2022-10-16T12:55:27;19.90;99.90
20376;DHT22;10347;51.828;6.466;2022-10-16T13:00:56;20.00;99.90
20376;DHT22;10347;51.828;6.466;2022-10-16T13:11:20;20.20;99.90
20376;DHT22;10347;51.828;6.466;2022-10-16T13:14:09;20.20;99.90
20376;DHT22;10347;51.828;6.466;2022-10-16T13:22:17;20.30;99.90
20376;DHT22;10347;51.828;6.466;2022-10-16T13:29:39;20.30;99.90
20376;DHT22;10347;51.828;6.466;2022-10-16T13:32:10;20.40;99.90
20376;DHT22;10347;51.828;6.466;2022-10-16T13:34:45;20.40;99.90
20376;DHT22;10347;51.828;6.466;2022-10-16T13:37:19;20.50;99.90
20376;DHT22;10347;51.828;6.466;2022-10-16T13:39:45;20.50;99.90
20376;DHT22;10347;51.828;6.466;2022-10-16T13:42:28;20.50;99.90
20376;DHT22;10347;51.828;6.466;2022-10-16T13:44:55;20.50;99.90
20376;DHT22;10347;51.828;6.466;2022-10-16T13:47:24;20.50;99.90
20376;DHT22;10347;51.828;6.466;2022-10-16T13:50:03;20.60;99.90
20376;DHT22;10347;51.828;6.466;2022-10-16T13:52:29;20.70;99.90
20376;DHT22;10347;51.828;6.466;2022-10-16T13:54:55;20.70;99.90
20376;DHT22;10347;51.828;6.466;2022-10-16T13:57:23;20.70;99.90
20376;DHT22;10347;51.828;6.466;2022-10-16T13:59:49;20.80;99.90
20376;DHT22;10347;51.828;6.466;2022-10-16T14:04:51;20.80;99.90
20376;DHT22;10347;51.828;6.466;2022-10-16T14:07:26;20.90;99.90
20376;DHT22;10347;51.828;6.466;2022-10-16T14:09:54;20.90;99.90
20376;DHT22;10347;51.828;6.466;2022-10-16T14:12:21;21.00;99.90
20376;DHT22;10347;51.828;6.466;2022-10-16T14:14:49;21.00;99.90
20376;DHT22;10347;51.828;6.466;2022-10-16T14:17:20;21.00;99.90
20376;DHT22;10347;51.828;6.466;2022-10-16T14:19:49;21.00;99.90
20376;DHT22;10347;51.828;6.466;2022-10-16T14:22:39;21.00;99.90
20376;DHT22;10347;51.828;6.466;2022-10-16T14:28:00;21.10;99.90
20376;DHT22;10347;51.828;6.466;2022-10-16T14:30:27;21.10;99.90
20376;DHT22;10347;51.828;6.466;2022-10-16T14:35:32;21.00;99.90
20376;DHT22;10347;51.828;6.466;2022-10-16T14:37:59;21.00;99.90
20376;DHT22;10347;51.828;6.466;2022-10-16T14:40:36;21.00;99.90
20376;DHT22;10347;51.828;6.466;2022-10-16T14:43:04;21.00;99.90
20376;DHT22;10347;51.828;6.466;2022-10-16T14:45:32;20.90;99.90
20376;DHT22;10347;51.828;6.466;2022-10-16T14:48:05;20.90;99.90
20376;DHT22;10347;51.828;6.466;2022-10-16T14:50:31;20.90;99.90
20376;DHT22;10347;51.828;6.466;2022-10-16T14:52:58;21.00;99.90
20376;DHT22;10347;51.828;6.466;2022-10-16T14:55:24;20.90;99.90
20376;DHT22;10347;51.828;6.466;2022-10-16T14:57:50;21.00;99.90
20376;DHT22;10347;51.828;6.466;2022-10-16T15:00:22;20.90;99.90
20376;DHT22;10347;51.828;6.466;2022-10-16T15:02:49;20.90;99.90
20376;DHT22;10347;51.828;6.466;2022-10-16T15:05:26;20.90;99.90
20376;DHT22;10347;51.828;6.466;2022-10-16T15:07:53;20.90;99.90
20376;DHT22;10347;51.828;6.466;2022-10-16T15:10:20;20.90;99.90
20376;DHT22;10347;51.828;6.466;2022-10-16T15:12:47;20.90;99.90
20376;DHT22;10347;51.828;6.466;2022-10-16T15:17:56;20.90;99.90
20376;DHT22;10347;51.828;6.466;2022-10-16T15:20:30;20.90;99.90
20376;DHT22;10347;51.828;6.466;2022-10-16T15:22:57;20.80;99.90
20376;DHT22;10347;51.828;6.466;2022-10-16T15:25:35;20.80;99.90
20376;DHT22;10347;51.828;6.466;2022-10-16T15:28:03;20.80;99.90
20376;DHT22;10347;51.828;6.466;2022-10-16T15:30:29;20.80;99.90
20376;DHT22;10347;51.828;6.466;2022-10-16T15:32:55;20.80;99.90
20376;DHT22;10347;51.828;6.466;2022-10-16T15:35:21;20.80;99.90
20376;DHT22;10347;51.828;6.466;2022-10-16T15:37:47;20.80;99.90
20376;DHT22;10347;51.828;6.466;2022-10-16T15:40:14;20.80;99.90
20376;DHT22;10347;51.828;6.466;2022-10-16T15:42:40;20.80;99.90
20376;DHT22;10347;51.828;6.466;2022-10-16T15:45:06;20.80;99.90
20376;DHT22;10347;51.828;6.466;2022-10-16T15:47:32;20.80;99.90
20376;DHT22;10347;51.828;6.466;2022-10-16T15:49:57;20.70;99.90
20376;DHT22;10347;51.828;6.466;2022-10-16T15:52:23;20.70;99.90
20376;DHT22;10347;51.828;6.466;2022-10-16T15:54:49;20.70;99.90
20376;DHT22;10347;51.828;6.466;2022-10-16T15:57:14;20.70;99.90
20376;DHT22;10347;51.828;6.466;2022-10-16T15:59:40;20.70;99.90
20376;DHT22;10347;51.828;6.466;2022-10-16T16:02:05;20.60;99.90
20376;DHT22;10347;51.828;6.466;2022-10-16T16:04:31;20.60;99.90
20376;DHT22;10347;51.828;6.466;2022-10-16T16:06:57;20.50;99.90
20376;DHT22;10347;51.828;6.466;2022-10-16T16:09:22;20.60;99.90
20376;DHT22;10347;51.828;6.466;2022-10-16T16:11:49;20.60;99.90
20376;DHT22;10347;51.828;6.466;2022-10-16T16:14:15;20.60;99.90
20376;DHT22;10347;51.828;6.466;2022-10-16T16:16:41;20.50;99.90
20376;DHT22;10347;51.828;6.466;2022-10-16T16:19:07;20.50;99.90
20376;DHT22;10347;51.828;6.466;2022-10-16T16:21:34;20.50;99.90
20376;DHT22;10347;51.828;6.466;2022-10-16T16:23:59;20.40;99.90
20376;DHT22;10347;51.828;6.466;2022-10-16T16:26:26;20.40;99.90
20376;DHT22;10347;51.828;6.466;2022-10-16T16:28:53;20.50;99.90
20376;DHT22;10347;51.828;6.466;2022-10-16T16:31:19;20.40;99.90
20376;DHT22;10347;51.828;6.466;2022-10-16T16:33:45;20.40;99.90
20376;DHT22;10347;51.828;6.466;2022-10-16T16:36:11;20.40;99.90
20376;DHT22;10347;51.828;6.466;2022-10-16T16:38:36;20.40;99.90
20376;DHT22;10347;51.828;6.466;2022-10-16T16:41:19;20.40;99.90
20376;DHT22;10347;51.828;6.466;2022-10-16T16:43:45;20.30;99.90
20376;DHT22;10347;51.828;6.466;2022-10-16T16:46:13;20.30;99.90
20376;DHT22;10347;51.828;6.466;2022-10-16T16:48:40;20.20;99.90
20376;DHT22;10347;51.828;6.466;2022-10-16T16:51:16;20.20;99.90
20376;DHT22;10347;51.828;6.466;2022-10-16T16:53:45;20.20;99.90
20376;DHT22;10347;51.828;6.466;2022-10-16T16:56:11;20.20;99.90
20376;DHT22;10347;51.828;6.466;2022-10-16T16:58:37;20.10;99.90
20376;DHT22;10347;51.828;6.466;2022-10-16T17:01:03;20.10;99.90
20376;DHT22;10347;51.828;6.466;2022-10-16T17:03:30;20.10;99.90
20376;DHT22;10347;51.828;6.466;2022-10-16T17:05:58;20.10;99.90
20376;DHT22;10347;51.828;6.466;2022-10-16T17:08:24;20.00;99.90
20376;DHT22;10347;51.828;6.466;2022-10-16T17:10:49;20.00;99.90
20376;DHT22;10347;51.828;6.466;2022-10-16T17:13:18;19.90;99.90
20376;DHT22;10347;51.828;6.466;2022-10-16T17:15:48;20.00;99.90
20376;DHT22;10347;51.828;6.466;2022-10-16T17:18:14;19.90;99.90
20376;DHT22;10347;51.828;6.466;2022-10-16T17:20:41;19.90;99.90
20376;DHT22;10347;51.828;6.466;2022-10-16T17:23:07;19.90;99.90
20376;DHT22;10347;51.828;6.466;2022-10-16T17:25:37;19.80;99.90
20376;DHT22;10347;51.828;6.466;2022-10-16T17:28:03;19.80;99.90
20376;DHT22;10347;51.828;6.466;2022-10-16T17:30:29;19.70;99.90
20376;DHT22;10347;51.828;6.466;2022-10-16T17:32:55;19.70;99.90
20376;DHT22;10347;51.828;6.466;2022-10-16T17:35:21;19.60;99.90
20376;DHT22;10347;51.828;6.466;2022-10-16T17:37:46;19.60;99.90
20376;DHT22;10347;51.828;6.466;2022-10-16T17:40:12;19.60;99.90
20376;DHT22;10347;51.828;6.466;2022-10-16T17:42:37;19.50;99.90